createdAt,value
2022-12-23T00:01:46.682Z,100002.56
2022-12-23T00:05:48.211Z,99998.28
2022-12-23T00:09:49.732Z,99987.09
2022-12-23T00:14:14.638Z,99986.34
2022-12-23T00:18:19.824Z,99964.84
2022-12-23T00:22:41.215Z,99961.50
2022-12-23T00:26:42.683Z,99955.19
2022-12-23T00:30:48.479Z,99950.47
2022-12-23T00:34:49.901Z,99949.41
2022-12-23T00:39:10.144Z,99944.06
2022-12-23T00:43:11.561Z,99935.72
2022-12-23T00:47:33.003Z,99942.81
2022-12-23T00:51:34.656Z,99948.81
2022-12-23T00:55:36.112Z,99957.00
2022-12-23T00:59:37.905Z,99964.59
2022-12-23T01:03:57.662Z,99964.09
2022-12-23T01:07:59.150Z,99946.78
2022-12-23T01:12:00.721Z,99942.56
2022-12-23T01:16:14.990Z,99939.00
2022-12-23T01:20:19.070Z,99933.78
2022-12-23T01:24:21.723Z,99927.00
2022-12-23T01:28:23.458Z,99925.94
2022-12-23T01:32:24.922Z,99927.97
2022-12-23T01:36:26.469Z,99926.66
2022-12-23T01:40:27.977Z,99926.22
2022-12-23T01:44:49.181Z,99917.50
2022-12-23T01:48:52.977Z,99923.72
2022-12-23T01:53:08.734Z,99917.06
2022-12-23T01:57:10.799Z,99917.56
2022-12-23T02:01:31.627Z,99910.03
2022-12-23T02:05:33.207Z,99896.69
2022-12-23T02:09:39.896Z,99890.13
2022-12-23T02:14:41.703Z,99882.38
2022-12-23T02:18:56.642Z,99881.22
2022-12-23T02:23:19.164Z,99878.22
2022-12-23T02:27:51.643Z,99885.34
2022-12-23T02:31:53.141Z,99869.41
2022-12-23T02:36:11.827Z,99869.47
2022-12-23T02:40:35.874Z,99854.19
2022-12-23T02:45:09.236Z,99861.28
2022-12-23T02:49:21.839Z,99860.88
2022-12-23T02:53:49.049Z,99849.50
2022-12-23T02:57:54.995Z,99845.06
2022-12-23T03:01:57.258Z,99843.28
2022-12-23T03:05:59.029Z,99844.44
2022-12-23T03:10:41.014Z,99835.41
2022-12-23T03:15:20.840Z,99837.69
2022-12-23T03:19:54.004Z,99829.94
2022-12-23T03:24:17.790Z,99835.81
2022-12-23T03:28:41.401Z,99826.38
2022-12-23T03:32:57.518Z,99823.13
2022-12-23T03:37:03.831Z,99818.81
2022-12-23T03:41:14.680Z,99808.19
2022-12-23T03:45:41.287Z,99807.19
2022-12-23T03:49:50.276Z,99803.25
2022-12-23T03:53:59.596Z,99807.72
2022-12-23T03:58:14.519Z,99804.03
2022-12-23T04:02:42.211Z,99789.63
2022-12-23T04:07:19.307Z,99796.00
2022-12-23T04:11:21.056Z,99795.03
2022-12-23T04:15:25.672Z,99783.66
2022-12-23T04:19:27.324Z,99779.63
2022-12-23T04:23:29.215Z,99779.03
2022-12-23T04:27:30.685Z,99772.06
2022-12-23T04:31:32.312Z,99780.41
2022-12-23T04:35:33.786Z,99773.53
2022-12-23T04:39:35.253Z,99772.22
2022-12-23T04:43:36.647Z,99769.09
2022-12-23T04:47:38.366Z,99771.25
2022-12-23T04:51:39.785Z,99768.53
2022-12-23T04:55:41.200Z,99773.59
2022-12-23T04:59:42.789Z,99775.28
2022-12-23T05:03:44.227Z,99771.69
2022-12-23T05:07:45.660Z,99768.63
2022-12-23T05:11:47.126Z,99774.91
2022-12-23T05:15:53.673Z,99792.50
2022-12-23T05:19:55.254Z,99789.53
2022-12-23T05:23:57.159Z,99785.56
2022-12-23T05:27:58.575Z,99776.91
2022-12-23T05:32:00.104Z,99779.41
2022-12-23T05:36:01.929Z,99768.59
2022-12-23T05:40:03.653Z,99782.53
2022-12-23T05:44:05.475Z,99771.41
2022-12-23T05:48:06.968Z,99784.31
2022-12-23T05:52:08.400Z,99782.94
2022-12-23T05:56:09.850Z,99782.81
2022-12-23T06:00:11.773Z,99778.09
2022-12-23T06:04:13.262Z,99780.56
2022-12-23T06:08:14.864Z,99786.47
2022-12-23T06:12:16.622Z,99790.66
2022-12-23T06:16:18.672Z,99798.69
2022-12-23T06:20:21.137Z,99806.69
2022-12-23T06:24:23.328Z,99820.75
2022-12-23T06:28:24.757Z,99815.16
2022-12-23T06:32:26.253Z,99822.31
2022-12-23T06:36:27.690Z,99831.78
2022-12-23T06:40:29.681Z,99843.28
2022-12-23T06:44:31.148Z,99839.16
2022-12-23T06:48:32.606Z,99854.50
2022-12-23T06:52:34.054Z,99859.38
2022-12-23T06:56:35.543Z,99869.09
2022-12-23T07:00:37.299Z,99865.84
2022-12-23T07:04:38.769Z,99879.88
2022-12-23T07:08:40.195Z,99886.19
2022-12-23T07:12:45.999Z,99886.69
2022-12-23T07:16:50.567Z,99898.19
2022-12-23T07:20:52.745Z,99890.50
2022-12-23T07:24:54.159Z,99897.47
2022-12-23T07:28:55.600Z,99896.59
2022-12-23T07:32:57.069Z,99903.00
2022-12-23T07:36:58.733Z,99913.44
2022-12-23T07:41:00.232Z,99907.03
2022-12-23T07:45:01.832Z,99916.91
2022-12-23T07:49:03.790Z,99918.53
2022-12-23T07:53:05.280Z,99928.09
2022-12-23T07:57:09.295Z,99930.00
2022-12-23T08:01:10.782Z,99930.94
2022-12-23T08:05:13.263Z,99929.44
2022-12-23T08:09:14.776Z,99935.00
2022-12-23T08:13:16.227Z,99942.66
2022-12-23T08:17:23.548Z,99943.25
2022-12-23T08:21:25.042Z,99943.41
2022-12-23T08:25:28.445Z,99941.03
2022-12-23T08:29:36.082Z,99956.28
2022-12-23T08:33:39.918Z,99947.75
2022-12-23T08:37:41.448Z,99944.59
2022-12-23T08:41:45.671Z,99955.16
2022-12-23T08:45:47.212Z,99948.78
2022-12-23T08:49:49.010Z,99964.53
2022-12-23T08:53:56.291Z,99963.59
2022-12-23T08:58:01.195Z,99965.06
2022-12-23T09:02:03.313Z,99985.53
2022-12-23T09:06:09.886Z,99979.13
2022-12-23T09:10:11.456Z,99969.75
2022-12-23T09:14:13.104Z,99978.53
2022-12-23T09:18:14.530Z,99986.13
2022-12-23T09:22:15.944Z,100004.72
2022-12-23T09:26:25.909Z,100004.63
2022-12-23T09:30:36.311Z,100003.84
2022-12-23T09:34:37.794Z,100013.81
2022-12-23T09:38:39.220Z,100030.69
2022-12-23T09:42:49.419Z,100035.56
2022-12-23T09:46:56.714Z,100023.38
2022-12-23T09:51:01.913Z,100038.72
2022-12-23T09:55:04.910Z,100043.03
2022-12-23T09:59:51.023Z,100063.25
2022-12-23T10:04:14.138Z,100067.94
2022-12-23T10:08:36.261Z,100076.44
2022-12-23T10:12:44.392Z,100072.72
2022-12-23T10:17:00.108Z,100071.03
2022-12-23T10:21:07.540Z,100065.03
2022-12-23T10:25:22.855Z,100061.41
2022-12-23T10:29:31.143Z,100059.91
2022-12-23T10:33:42.124Z,100051.78
2022-12-23T10:38:21.962Z,100047.75
2022-12-23T10:43:02.100Z,100044.91
2022-12-23T10:47:21.543Z,100031.16
2022-12-23T10:51:47.831Z,100044.56
2022-12-23T10:55:53.551Z,100048.47
2022-12-23T10:59:55.061Z,100053.31
2022-12-23T11:04:27.184Z,100060.13
2022-12-23T11:08:31.286Z,100057.66
2022-12-23T11:13:04.372Z,100053.31
2022-12-23T11:17:18.696Z,100057.66
2022-12-23T11:21:20.515Z,100062.97
2022-12-23T11:25:25.116Z,100067.63
2022-12-23T11:29:35.943Z,100070.78
2022-12-23T11:33:45.612Z,100065.66
2022-12-23T11:37:47.095Z,100071.91
2022-12-23T11:41:51.955Z,100069.50
2022-12-23T11:46:16.930Z,100061.44
2022-12-23T11:50:26.911Z,100088.25
2022-12-23T11:54:29.259Z,100093.78
2022-12-23T11:58:38.176Z,100110.44
2022-12-23T12:02:43.109Z,100108.94
2022-12-23T12:06:49.641Z,100116.09
2022-12-23T12:11:02.057Z,100114.09
2022-12-23T12:15:04.356Z,100119.47
2022-12-23T12:19:22.620Z,100123.63
2022-12-23T12:24:17.348Z,100112.25
2022-12-23T12:28:25.998Z,100101.25
2022-12-23T12:32:36.051Z,100107.84
2022-12-23T12:36:52.832Z,100107.06
2022-12-23T12:41:01.742Z,100091.53
2022-12-23T12:45:23.694Z,100098.16
2022-12-23T12:49:30.891Z,100088.28
2022-12-23T12:53:33.434Z,100081.25
2022-12-23T12:57:36.569Z,100067.16
2022-12-23T13:01:49.653Z,100074.94
2022-12-23T13:06:23.496Z,100070.84
2022-12-23T13:10:53.118Z,100069.19
2022-12-23T13:15:05.548Z,100078.56
2022-12-23T13:19:28.593Z,100075.56
2022-12-23T13:23:48.532Z,100071.69
2022-12-23T13:27:57.421Z,100074.38
2022-12-23T13:32:36.509Z,100067.06
2022-12-23T13:36:56.767Z,100042.31
2022-12-23T13:41:30.023Z,100045.28
2022-12-23T13:45:36.236Z,100047.06
2022-12-23T13:49:41.441Z,100055.31
2022-12-23T13:54:27.323Z,100041.69
2022-12-23T13:58:31.386Z,100050.59
2022-12-23T14:02:35.710Z,100050.88
2022-12-23T14:06:37.215Z,100049.94
2022-12-23T14:10:39.024Z,100050.09
2022-12-23T14:15:02.041Z,100051.19
2022-12-23T14:19:18.521Z,100055.47
2022-12-23T14:23:40.308Z,100052.44
2022-12-23T14:27:48.356Z,100048.25
2022-12-23T14:31:56.262Z,100061.13
2022-12-23T14:36:15.542Z,100058.72
2022-12-23T14:40:38.648Z,100068.16
2022-12-23T14:44:40.204Z,100072.38
2022-12-23T14:48:41.586Z,100062.19
2022-12-23T14:52:49.666Z,100072.91
2022-12-23T14:57:07.312Z,100068.44
2022-12-23T15:01:12.985Z,100075.66
2022-12-23T15:05:14.499Z,100065.22
2022-12-23T15:09:25.564Z,100068.28
2022-12-23T15:13:29.455Z,100068.44
2022-12-23T15:17:34.038Z,100060.88
2022-12-23T15:21:36.235Z,100048.31
2022-12-23T15:25:48.859Z,100055.13
2022-12-23T15:29:52.678Z,100051.53
2022-12-23T15:34:04.021Z,100051.53
2022-12-23T15:38:14.555Z,100043.41
2022-12-23T15:42:28.095Z,100040.00
2022-12-23T15:46:31.807Z,100047.31
2022-12-23T15:50:41.705Z,100047.09
2022-12-23T15:54:56.447Z,100047.63
2022-12-23T15:59:02.401Z,100045.66
2022-12-23T16:03:07.725Z,100059.44
2022-12-23T16:07:37.684Z,100061.72
2022-12-23T16:11:54.533Z,100066.97
2022-12-23T16:16:31.351Z,100072.91
2022-12-23T16:20:41.806Z,100080.81
2022-12-23T16:24:46.839Z,100072.38
2022-12-23T16:28:52.552Z,100073.09
2022-12-23T16:32:56.779Z,100066.09
2022-12-23T16:36:58.207Z,100057.31
2022-12-23T16:40:59.678Z,100051.72
2022-12-23T16:45:01.130Z,100061.63
2022-12-23T16:49:05.252Z,100047.78
2022-12-23T16:53:06.811Z,100035.63
2022-12-23T16:57:09.435Z,100032.69
2022-12-23T17:01:21.885Z,100026.44
2022-12-23T17:05:23.902Z,100029.66
2022-12-23T17:09:25.379Z,100020.31
2022-12-23T17:13:26.861Z,100022.25
2022-12-23T17:17:28.412Z,100010.06
2022-12-23T17:21:33.539Z,100002.13
2022-12-23T17:25:34.982Z,100003.81
2022-12-23T17:29:36.494Z,99996.91
2022-12-23T17:33:39.251Z,99991.03
2022-12-23T17:37:40.819Z,99977.41
2022-12-23T17:41:43.083Z,99978.50
2022-12-23T17:45:45.577Z,99975.47
2022-12-23T17:49:47.597Z,99969.09
2022-12-23T17:53:57.343Z,99958.19
2022-12-23T17:57:59.571Z,99959.00
2022-12-23T18:02:03.247Z,99952.13
2022-12-23T18:06:09.202Z,99949.78
2022-12-23T18:10:13.412Z,99950.84
2022-12-23T18:14:19.903Z,99952.75
2022-12-23T18:18:32.088Z,99950.44
2022-12-23T18:22:39.422Z,99960.06
2022-12-23T18:26:41.043Z,99955.16
2022-12-23T18:30:42.905Z,99947.88
2022-12-23T18:34:44.372Z,99958.19
2022-12-23T18:38:45.821Z,99957.84
2022-12-23T18:42:47.310Z,99963.28
2022-12-23T18:46:49.562Z,99964.50
2022-12-23T18:50:51.158Z,99953.41
2022-12-23T18:54:53.370Z,99951.78
2022-12-23T18:58:54.808Z,99954.75
2022-12-23T19:02:57.346Z,99956.16
2022-12-23T19:06:58.835Z,99952.59
2022-12-23T19:11:00.481Z,99954.03
2022-12-23T19:15:01.939Z,99947.44
2022-12-23T19:19:03.647Z,99942.91
2022-12-23T19:23:05.143Z,99943.91
2022-12-23T19:27:06.767Z,99948.09
2022-12-23T19:31:09.534Z,99942.13
2022-12-23T19:35:15.045Z,99938.66
2022-12-23T19:39:17.240Z,99943.28
2022-12-23T19:43:18.818Z,99940.53
2022-12-23T19:47:20.258Z,99940.78
2022-12-23T19:51:21.743Z,99929.44
2022-12-23T19:55:23.495Z,99926.22
2022-12-23T19:59:25.032Z,99920.84
2022-12-23T20:03:26.613Z,99922.53
2022-12-23T20:07:28.261Z,99912.06
2022-12-23T20:11:33.516Z,99911.84
2022-12-23T20:15:35.211Z,99899.22
2022-12-23T20:19:43.772Z,99896.69
2022-12-23T20:23:47.850Z,99896.38
2022-12-23T20:27:49.322Z,99882.03
2022-12-23T20:31:51.980Z,99865.34
2022-12-23T20:35:53.469Z,99866.09
2022-12-23T20:39:55.027Z,99868.56
2022-12-23T20:44:32.245Z,99870.78
2022-12-23T20:48:18.261Z,99870.34
2022-12-23T20:52:19.758Z,99859.88
2022-12-23T20:56:22.152Z,99866.00
2022-12-23T21:00:23.739Z,99856.78
2022-12-23T21:04:25.186Z,99870.22
2022-12-23T21:08:26.670Z,99876.63
2022-12-23T21:12:28.164Z,99876.16
2022-12-23T21:16:31.314Z,99869.19
2022-12-23T21:20:32.806Z,99875.66
2022-12-23T21:24:34.310Z,99876.19
2022-12-23T21:28:36.615Z,99878.75
2022-12-23T21:32:38.878Z,99868.75
2022-12-23T21:36:41.641Z,99870.88
2022-12-23T21:40:43.124Z,99867.22
2022-12-23T21:44:44.619Z,99873.47
2022-12-23T21:48:47.279Z,99872.47
2022-12-23T21:52:48.813Z,99862.31
2022-12-23T21:56:50.282Z,99855.75
2022-12-23T22:00:51.800Z,99848.84
2022-12-23T22:04:53.261Z,99841.50
2022-12-23T22:08:55.940Z,99838.50
2022-12-23T22:12:57.379Z,99833.78
2022-12-23T22:16:58.978Z,99833.56
2022-12-23T22:21:05.045Z,99840.72
2022-12-23T22:25:06.708Z,99846.06
2022-12-23T22:29:08.298Z,99837.84
2022-12-23T22:33:09.779Z,99844.78
2022-12-23T22:37:12.389Z,99835.94
2022-12-23T22:41:15.993Z,99827.97
2022-12-23T22:45:17.608Z,99824.38
2022-12-23T22:49:19.186Z,99829.41
2022-12-23T22:53:24.897Z,99827.22
2022-12-23T22:57:31.274Z,99826.38
2022-12-23T23:01:36.045Z,99823.06
2022-12-23T23:05:37.613Z,99817.81
2022-12-23T23:09:39.131Z,99816.03
2022-12-23T23:13:40.548Z,99823.44
2022-12-23T23:17:42.069Z,99830.91
2022-12-23T23:21:43.568Z,99828.94
2022-12-23T23:25:45.224Z,99831.69
2022-12-23T23:29:46.758Z,99828.53
2022-12-23T23:33:48.174Z,99837.31
2022-12-23T23:37:49.856Z,99841.38
2022-12-23T23:41:51.398Z,99835.53
2022-12-23T23:45:52.981Z,99842.91
2022-12-23T23:49:54.519Z,99844.06
2022-12-23T23:53:56.078Z,99842.56
2022-12-23T23:57:57.802Z,99840.41
